createdAt,value
2022-08-19T00:01:45.995Z,22.92
2022-08-19T00:04:23.411Z,24.70
2022-08-19T00:06:50.163Z,25.25
2022-08-19T00:09:18.551Z,23.02
2022-08-19T00:11:45.887Z,24.50
2022-08-19T00:14:14.467Z,25.20
2022-08-19T00:16:42.633Z,23.57
2022-08-19T00:19:09.923Z,25.05
2022-08-19T00:21:38.191Z,21.33
2022-08-19T00:24:05.180Z,22.27
2022-08-19T00:26:31.784Z,24.77
2022-08-19T00:28:58.559Z,25.63
2022-08-19T00:31:25.171Z,26.52
2022-08-19T00:33:51.820Z,26.20
2022-08-19T00:36:18.719Z,23.83
2022-08-19T00:38:48.367Z,25.30
2022-08-19T00:41:16.712Z,25.97
2022-08-19T00:43:43.592Z,25.17
2022-08-19T00:46:10.570Z,26.17
2022-08-19T00:48:37.437Z,23.60
2022-08-19T00:51:05.222Z,26.58
2022-08-19T00:53:32.830Z,26.67
2022-08-19T00:56:03.137Z,26.55
2022-08-19T00:58:33.224Z,27.48
2022-08-19T01:00:59.905Z,29.38
2022-08-19T01:03:26.507Z,30.38
2022-08-19T01:05:55.401Z,31.80
2022-08-19T01:08:22.508Z,30.70
2022-08-19T01:10:51.602Z,32.90
2022-08-19T01:13:22.118Z,33.17
2022-08-19T01:15:57.260Z,30.30
2022-08-19T01:18:26.472Z,31.67
2022-08-19T01:20:57.092Z,29.20
2022-08-19T01:23:25.328Z,30.20
2022-08-19T01:25:53.553Z,31.48
2022-08-19T01:28:39.745Z,30.50
2022-08-19T01:31:08.346Z,30.07
2022-08-19T01:33:35.079Z,34.17
2022-08-19T01:36:07.440Z,33.03
2022-08-19T01:38:44.096Z,30.75
2022-08-19T01:41:11.468Z,32.47
2022-08-19T01:43:38.507Z,32.43
2022-08-19T01:46:25.226Z,32.35
2022-08-19T01:48:51.784Z,31.60
2022-08-19T01:51:18.509Z,31.73
2022-08-19T01:53:48.143Z,32.08
2022-08-19T01:56:15.247Z,32.20
2022-08-19T01:58:44.947Z,32.20
2022-08-19T02:01:11.655Z,32.55
2022-08-19T02:03:38.324Z,33.00
2022-08-19T02:06:05.451Z,28.73
2022-08-19T02:08:35.848Z,27.40
2022-08-19T02:11:05.374Z,29.58
2022-08-19T02:13:32.776Z,31.20
2022-08-19T02:15:59.391Z,32.88
2022-08-19T02:18:28.127Z,29.20
2022-08-19T02:20:54.800Z,33.37
2022-08-19T02:23:21.465Z,31.85
2022-08-19T02:25:48.973Z,29.55
2022-08-19T02:28:18.989Z,27.65
2022-08-19T02:30:47.235Z,30.45
2022-08-19T02:33:13.948Z,29.20
2022-08-19T02:35:42.947Z,30.25
2022-08-19T02:38:09.671Z,29.75
2022-08-19T02:40:36.549Z,28.73
2022-08-19T02:43:06.587Z,30.23
2022-08-19T02:45:35.716Z,29.00
2022-08-19T02:48:12.679Z,32.80
2022-08-19T02:50:53.156Z,30.75
2022-08-19T02:53:20.205Z,30.75
2022-08-19T02:55:48.210Z,31.73
2022-08-19T02:58:15.751Z,33.77
2022-08-19T03:00:45.776Z,34.13
2022-08-19T03:03:12.980Z,33.42
2022-08-19T03:05:55.709Z,35.80
2022-08-19T03:08:23.097Z,29.80
2022-08-19T03:10:49.760Z,34.73
2022-08-19T03:13:18.636Z,31.42
2022-08-19T03:15:48.380Z,32.67
2022-08-19T03:18:16.398Z,36.35
2022-08-19T03:20:46.059Z,32.92
2022-08-19T03:23:13.407Z,34.13
2022-08-19T03:25:40.981Z,32.97
2022-08-19T03:28:07.733Z,33.72
2022-08-19T03:30:34.424Z,34.15
2022-08-19T03:33:02.524Z,33.45
2022-08-19T03:35:32.267Z,36.53
2022-08-19T03:37:59.471Z,31.70
2022-08-19T03:40:26.532Z,28.27
2022-08-19T03:42:53.176Z,32.90
2022-08-19T03:45:23.272Z,30.30
2022-08-19T03:47:49.959Z,29.90
2022-08-19T03:50:19.081Z,31.20
2022-08-19T03:52:49.624Z,30.30
2022-08-19T03:55:16.492Z,31.23
2022-08-19T03:57:43.263Z,27.30
2022-08-19T04:00:12.810Z,29.33
2022-08-19T04:02:41.048Z,30.75
2022-08-19T04:05:08.394Z,26.50
2022-08-19T04:07:36.428Z,31.55
2022-08-19T04:10:04.028Z,28.45
2022-08-19T04:12:30.682Z,28.03
2022-08-19T04:14:57.421Z,29.40
2022-08-19T04:17:24.334Z,28.35
2022-08-19T04:19:50.968Z,25.55
2022-08-19T04:22:17.619Z,28.30
2022-08-19T04:24:45.659Z,30.83
2022-08-19T04:27:12.304Z,28.27
2022-08-19T04:29:38.988Z,27.00
2022-08-19T04:32:09.386Z,28.85
2022-08-19T04:34:37.203Z,28.95
2022-08-19T04:37:23.796Z,29.60
2022-08-19T04:39:51.811Z,30.10
2022-08-19T04:42:30.638Z,30.80
2022-08-19T04:44:58.327Z,32.70
2022-08-19T04:47:46.934Z,34.72
2022-08-19T04:50:12.399Z,32.47
2022-08-19T04:52:39.416Z,33.40
2022-08-19T04:55:08.524Z,30.65
2022-08-19T04:57:35.163Z,33.30
2022-08-19T05:00:02.038Z,32.83
2022-08-19T05:02:28.630Z,31.83
2022-08-19T05:04:58.138Z,31.92
2022-08-19T05:07:24.776Z,34.53
2022-08-19T05:09:57.862Z,33.50
2022-08-19T05:12:29.394Z,33.90
2022-08-19T05:14:56.810Z,29.90
2022-08-19T05:17:27.540Z,31.73
2022-08-19T05:19:56.005Z,33.40
2022-08-19T05:22:22.727Z,38.25
2022-08-19T05:25:11.118Z,30.58
2022-08-19T05:27:37.475Z,28.13
2022-08-19T05:30:05.091Z,32.75
2022-08-19T05:32:32.131Z,31.08
2022-08-19T05:34:58.806Z,30.90
2022-08-19T05:37:25.549Z,34.95
2022-08-19T05:39:52.190Z,32.23
2022-08-19T05:42:19.190Z,31.50
2022-08-19T05:44:47.227Z,31.60
2022-08-19T05:47:14.855Z,33.03
2022-08-19T05:49:42.671Z,33.30
2022-08-19T05:52:11.751Z,32.93
2022-08-19T05:54:40.072Z,33.80
2022-08-19T05:57:07.407Z,31.40
2022-08-19T05:59:35.732Z,30.13
2022-08-19T06:02:07.771Z,31.85
2022-08-19T06:04:35.082Z,29.87
2022-08-19T06:07:01.792Z,31.95
2022-08-19T06:09:39.620Z,30.30
2022-08-19T06:12:06.851Z,28.63
2022-08-19T06:14:35.423Z,27.40
2022-08-19T06:17:09.286Z,27.67
2022-08-19T06:19:40.854Z,28.75
2022-08-19T06:22:08.535Z,27.52
2022-08-19T06:24:35.852Z,28.02
2022-08-19T06:27:03.503Z,28.13
2022-08-19T06:29:30.520Z,27.73
2022-08-19T06:31:59.244Z,27.58
2022-08-19T06:34:28.972Z,27.50
2022-08-19T06:36:57.027Z,27.10
2022-08-19T06:39:25.940Z,26.90
2022-08-19T06:41:58.204Z,29.07
2022-08-19T06:44:28.444Z,25.67
2022-08-19T06:46:57.343Z,27.90
2022-08-19T06:49:24.725Z,25.45
2022-08-19T06:51:52.796Z,25.73
2022-08-19T06:54:20.401Z,24.50
2022-08-19T06:56:47.550Z,25.73
2022-08-19T06:59:16.168Z,26.63
2022-08-19T07:01:45.384Z,26.58
2022-08-19T07:04:12.317Z,22.98
2022-08-19T07:06:43.532Z,26.10
2022-08-19T07:09:18.373Z,28.25
2022-08-19T07:11:46.831Z,28.38
2022-08-19T07:14:18.904Z,29.75
2022-08-19T07:16:46.863Z,26.83
2022-08-19T07:19:16.149Z,28.60
2022-08-19T07:21:43.800Z,27.13
2022-08-19T07:24:12.074Z,27.17
2022-08-19T07:26:42.237Z,24.92
2022-08-19T07:29:10.288Z,27.83
2022-08-19T07:31:37.992Z,24.77
2022-08-19T07:34:07.381Z,25.80
2022-08-19T07:36:36.065Z,26.58
2022-08-19T07:39:06.967Z,26.17
2022-08-19T07:41:36.348Z,26.08
2022-08-19T07:44:03.688Z,24.17
2022-08-19T07:46:30.581Z,23.85
2022-08-19T07:48:57.600Z,23.80
2022-08-19T07:51:36.918Z,22.98
2022-08-19T07:54:04.391Z,25.50
2022-08-19T07:56:31.240Z,22.93
2022-08-19T07:58:59.312Z,24.08
2022-08-19T08:01:27.933Z,23.67
2022-08-19T08:03:57.430Z,23.60
2022-08-19T08:06:25.117Z,23.73
2022-08-19T08:08:55.727Z,23.00
2022-08-19T08:11:24.937Z,22.38
2022-08-19T08:14:01.083Z,25.25
2022-08-19T08:16:35.302Z,22.52
2022-08-19T08:19:07.298Z,24.27
2022-08-19T08:21:48.099Z,24.63
2022-08-19T08:24:14.810Z,22.95
2022-08-19T08:26:46.967Z,22.13
2022-08-19T08:29:18.980Z,25.33
2022-08-19T08:31:48.836Z,22.23
2022-08-19T08:34:25.182Z,22.60
2022-08-19T08:36:51.781Z,23.33
2022-08-19T08:39:22.067Z,20.17
2022-08-19T08:41:54.171Z,19.95
2022-08-19T08:44:25.020Z,22.85
2022-08-19T08:46:58.375Z,19.53
2022-08-19T08:49:34.399Z,18.63
2022-08-19T08:52:05.429Z,19.27
2022-08-19T08:54:35.715Z,22.38
2022-08-19T08:57:08.234Z,21.35
2022-08-19T08:59:40.078Z,16.93
2022-08-19T09:02:08.849Z,18.70
2022-08-19T09:04:36.198Z,17.65
2022-08-19T09:07:35.420Z,19.80
2022-08-19T09:10:11.021Z,21.58
2022-08-19T09:12:54.585Z,18.80
2022-08-19T09:15:33.396Z,15.50
2022-08-19T09:18:03.317Z,17.52
2022-08-19T09:20:34.015Z,16.55
2022-08-19T09:23:00.704Z,15.23
2022-08-19T09:25:29.630Z,15.77
2022-08-19T09:28:02.998Z,17.60
2022-08-19T09:30:34.550Z,15.75
2022-08-19T09:33:02.605Z,15.73
2022-08-19T09:35:30.676Z,15.75
2022-08-19T09:37:59.688Z,17.03
2022-08-19T09:40:27.320Z,15.45
2022-08-19T09:42:57.761Z,17.60
2022-08-19T09:45:25.118Z,21.98
2022-08-19T09:47:54.101Z,19.02
2022-08-19T09:50:23.947Z,21.37
2022-08-19T09:52:54.110Z,20.02
2022-08-19T09:55:24.832Z,20.63
2022-08-19T09:57:57.939Z,21.42
2022-08-19T10:00:24.610Z,19.52
2022-08-19T10:02:51.332Z,21.80
2022-08-19T10:05:26.620Z,21.27
2022-08-19T10:07:56.781Z,19.35
2022-08-19T10:10:23.816Z,22.08
2022-08-19T10:12:51.371Z,23.70
2022-08-19T10:15:18.074Z,19.90
2022-08-19T10:17:56.183Z,22.55
2022-08-19T10:20:23.002Z,21.05
2022-08-19T10:22:49.667Z,20.73
2022-08-19T10:25:20.020Z,20.27
2022-08-19T10:27:51.353Z,19.83
2022-08-19T10:30:18.451Z,21.60
2022-08-19T10:32:47.316Z,22.65
2022-08-19T10:35:14.472Z,22.02
2022-08-19T10:37:56.736Z,24.48
2022-08-19T10:40:26.832Z,22.07
2022-08-19T10:42:53.547Z,19.77
2022-08-19T10:45:20.552Z,21.10
2022-08-19T10:47:47.181Z,22.42
2022-08-19T10:50:14.011Z,21.30
2022-08-19T10:52:48.946Z,21.40
2022-08-19T10:55:17.970Z,23.50
2022-08-19T10:58:01.780Z,21.23
2022-08-19T11:00:29.773Z,21.55
2022-08-19T11:02:56.418Z,18.55
2022-08-19T11:05:24.289Z,20.43
2022-08-19T11:07:51.718Z,19.95
2022-08-19T11:10:21.609Z,17.67
2022-08-19T11:12:50.312Z,19.63
2022-08-19T11:15:17.194Z,19.00
2022-08-19T11:17:43.831Z,17.83
2022-08-19T11:20:12.499Z,20.67
2022-08-19T11:22:41.669Z,19.85
2022-08-19T11:25:09.898Z,16.83
2022-08-19T11:27:39.404Z,18.23
2022-08-19T11:30:12.952Z,19.73
2022-08-19T11:32:40.068Z,17.80
2022-08-19T11:35:07.515Z,20.13
2022-08-19T11:37:34.299Z,19.65
2022-08-19T11:40:01.007Z,15.50
2022-08-19T11:42:27.895Z,16.40
2022-08-19T11:44:54.751Z,16.90
2022-08-19T11:47:22.880Z,16.08
2022-08-19T11:49:49.551Z,16.63
2022-08-19T11:52:16.226Z,14.82
2022-08-19T11:54:42.811Z,15.90
2022-08-19T11:57:09.404Z,16.60
2022-08-19T11:59:36.067Z,16.55
2022-08-19T12:02:02.765Z,14.00
2022-08-19T12:04:30.807Z,15.20
2022-08-19T12:06:57.496Z,15.07
2022-08-19T12:09:24.222Z,16.55
2022-08-19T12:11:50.910Z,17.33
2022-08-19T12:14:17.526Z,14.45
2022-08-19T12:16:49.050Z,14.82
2022-08-19T12:19:22.191Z,14.63
2022-08-19T12:21:51.633Z,12.57
2022-08-19T12:24:18.631Z,14.88
2022-08-19T12:26:52.964Z,15.05
2022-08-19T12:29:23.369Z,15.05
2022-08-19T12:31:51.182Z,15.43
2022-08-19T12:34:17.936Z,13.90
2022-08-19T12:36:44.544Z,17.55
2022-08-19T12:39:12.628Z,15.68
2022-08-19T12:41:49.192Z,17.45
2022-08-19T12:44:29.037Z,13.43
2022-08-19T12:46:56.682Z,14.95
2022-08-19T12:49:52.111Z,18.85
2022-08-19T12:52:11.005Z,17.85
2022-08-19T12:54:39.056Z,22.27
2022-08-19T12:57:07.383Z,18.40
2022-08-19T12:59:34.223Z,18.13
2022-08-19T13:02:00.900Z,18.25
2022-08-19T13:04:27.555Z,17.30
2022-08-19T13:06:54.243Z,15.15
2022-08-19T13:09:20.920Z,15.67
2022-08-19T13:11:48.922Z,16.73
2022-08-19T13:14:15.534Z,16.08
2022-08-19T13:16:42.153Z,20.30
2022-08-19T13:19:08.792Z,20.70
2022-08-19T13:21:35.440Z,20.33
2022-08-19T13:24:03.775Z,18.67
2022-08-19T13:26:30.491Z,16.38
2022-08-19T13:28:58.554Z,19.40
2022-08-19T13:31:27.883Z,17.95
2022-08-19T13:33:54.527Z,15.17
2022-08-19T13:36:21.171Z,16.38
2022-08-19T13:38:47.839Z,14.98
2022-08-19T13:41:15.027Z,16.63
2022-08-19T13:43:41.735Z,15.88
2022-08-19T13:46:11.760Z,17.43
2022-08-19T13:48:38.412Z,17.67
2022-08-19T13:51:06.395Z,16.80
2022-08-19T13:53:33.110Z,14.73
2022-08-19T13:55:59.743Z,13.30
2022-08-19T13:58:26.419Z,10.77
2022-08-19T14:00:53.168Z,10.20
2022-08-19T14:03:21.243Z,9.13
2022-08-19T14:05:48.083Z,9.60
2022-08-19T14:08:15.072Z,10.00
2022-08-19T14:10:41.991Z,8.10
2022-08-19T14:13:08.643Z,9.57
2022-08-19T14:15:35.435Z,7.90
2022-08-19T14:18:02.099Z,8.00
2022-08-19T14:20:30.532Z,12.50
2022-08-19T14:22:57.150Z,8.73
2022-08-19T14:25:26.423Z,8.13
2022-08-19T14:27:53.577Z,8.15
2022-08-19T14:30:23.439Z,9.45
2022-08-19T14:32:50.109Z,7.60
2022-08-19T14:35:17.178Z,9.50
2022-08-19T14:37:56.307Z,7.93
2022-08-19T14:40:25.705Z,12.02
2022-08-19T14:42:52.916Z,7.53
2022-08-19T14:45:19.659Z,8.68
2022-08-19T14:47:46.308Z,7.97
2022-08-19T14:50:18.184Z,10.18
2022-08-19T14:52:48.262Z,8.40
2022-08-19T14:55:15.727Z,9.05
2022-08-19T14:57:42.770Z,8.95
2022-08-19T15:00:10.825Z,16.40
2022-08-19T15:02:37.529Z,9.48
2022-08-19T15:05:04.756Z,9.75
2022-08-19T15:07:31.340Z,10.10
2022-08-19T15:09:59.533Z,11.40
2022-08-19T15:12:26.342Z,10.83
2022-08-19T15:14:56.062Z,14.90
2022-08-19T15:17:43.484Z,9.02
2022-08-19T15:20:12.890Z,8.90
2022-08-19T15:22:40.261Z,11.07
2022-08-19T15:25:11.569Z,10.90
2022-08-19T15:27:39.015Z,11.52
2022-08-19T15:30:07.002Z,11.38
2022-08-19T15:32:33.761Z,18.25
2022-08-19T15:35:00.495Z,11.60
2022-08-19T15:37:27.232Z,11.20
2022-08-19T15:39:54.095Z,10.57
2022-08-19T15:42:29.862Z,11.52
2022-08-19T15:45:01.009Z,10.80
2022-08-19T15:47:35.441Z,12.85
2022-08-19T15:50:05.876Z,12.90
2022-08-19T15:52:32.588Z,13.38
2022-08-19T15:54:59.855Z,11.43
2022-08-19T15:57:27.895Z,13.18
2022-08-19T15:59:54.641Z,11.05
2022-08-19T16:02:32.255Z,9.00
2022-08-19T16:04:59.407Z,11.02
2022-08-19T16:07:26.159Z,10.27
2022-08-19T16:09:52.905Z,14.93
2022-08-19T16:12:19.575Z,13.63
2022-08-19T16:14:47.661Z,10.97
2022-08-19T16:17:14.508Z,12.13
2022-08-19T16:19:41.196Z,10.85
2022-08-19T16:22:07.837Z,12.63
2022-08-19T16:24:34.507Z,11.88
2022-08-19T16:27:01.079Z,12.97
2022-08-19T16:29:34.461Z,13.80
2022-08-19T16:32:11.577Z,13.05
2022-08-19T16:34:38.435Z,14.40
2022-08-19T16:37:05.220Z,11.45
2022-08-19T16:39:31.872Z,14.37
2022-08-19T16:41:58.796Z,11.63
2022-08-19T16:44:25.631Z,13.10
2022-08-19T16:46:59.094Z,13.80
2022-08-19T16:49:54.504Z,15.27
2022-08-19T16:52:16.290Z,13.00
2022-08-19T16:54:43.783Z,11.60
2022-08-19T16:57:12.359Z,16.30
2022-08-19T16:59:39.167Z,13.70
2022-08-19T17:02:11.053Z,14.18
2022-08-19T17:04:39.070Z,16.60
2022-08-19T17:07:05.868Z,17.20
2022-08-19T17:09:32.599Z,16.85
2022-08-19T17:11:59.247Z,18.42
2022-08-19T17:14:25.911Z,20.38
2022-08-19T17:16:52.541Z,23.10
2022-08-19T17:19:19.224Z,18.98
2022-08-19T17:21:47.397Z,17.25
2022-08-19T17:24:14.102Z,16.63
2022-08-19T17:26:40.736Z,14.77
2022-08-19T17:29:07.433Z,14.43
2022-08-19T17:31:34.232Z,15.30
2022-08-19T17:34:00.952Z,15.65
2022-08-19T17:36:32.796Z,14.27
2022-08-19T17:39:02.055Z,12.20
2022-08-19T17:41:29.471Z,11.17
2022-08-19T17:43:56.583Z,13.10
2022-08-19T17:46:23.409Z,11.20
2022-08-19T17:48:52.702Z,10.85
2022-08-19T17:51:22.914Z,13.27
2022-08-19T17:53:50.401Z,11.87
2022-08-19T17:56:18.665Z,10.32
2022-08-19T17:58:51.974Z,10.20
2022-08-19T18:01:30.750Z,9.73
2022-08-19T18:04:11.136Z,11.50
2022-08-19T18:06:39.599Z,13.77
2022-08-19T18:09:06.423Z,11.25
2022-08-19T18:11:34.555Z,11.70
2022-08-19T18:14:01.279Z,9.98
2022-08-19T18:16:28.003Z,12.02
2022-08-19T18:18:54.583Z,11.30
2022-08-19T18:21:21.793Z,9.30
2022-08-19T18:23:48.500Z,13.05
2022-08-19T18:26:15.279Z,9.60
2022-08-19T18:28:49.493Z,11.75
2022-08-19T18:31:16.969Z,10.37
2022-08-19T18:33:44.042Z,9.18
2022-08-19T18:36:11.160Z,11.70
2022-08-19T18:38:37.860Z,12.45
2022-08-19T18:41:05.276Z,13.35
2022-08-19T18:43:32.000Z,13.43
2022-08-19T18:46:00.110Z,13.15
2022-08-19T18:48:28.256Z,14.93
2022-08-19T18:50:56.870Z,11.82
2022-08-19T18:53:23.656Z,14.73
2022-08-19T18:55:50.401Z,13.23
2022-08-19T18:58:17.076Z,12.68
2022-08-19T19:00:43.787Z,12.65
2022-08-19T19:03:11.839Z,10.02
2022-08-19T19:05:38.547Z,11.85
2022-08-19T19:08:05.324Z,10.40
2022-08-19T19:10:32.009Z,10.18
2022-08-19T19:12:58.682Z,10.10
2022-08-19T19:15:25.379Z,9.18
2022-08-19T19:17:52.044Z,11.48
2022-08-19T19:20:20.125Z,9.47
2022-08-19T19:22:46.784Z,10.02
2022-08-19T19:25:13.451Z,9.32
2022-08-19T19:27:40.128Z,10.50
2022-08-19T19:30:07.883Z,9.05
2022-08-19T19:32:38.675Z,10.77
2022-08-19T19:35:07.757Z,10.70
2022-08-19T19:37:36.160Z,10.02
2022-08-19T19:40:04.319Z,10.48
2022-08-19T19:42:30.958Z,10.80
2022-08-19T19:44:57.720Z,10.97
2022-08-19T19:47:24.794Z,11.95
2022-08-19T19:52:39.781Z,11.88
2022-08-19T19:55:08.236Z,11.70
2022-08-19T19:57:35.084Z,11.83
2022-08-19T20:00:01.770Z,12.25
2022-08-19T20:02:28.537Z,13.48
2022-08-19T20:04:55.211Z,12.75
2022-08-19T20:07:21.866Z,12.85
2022-08-19T20:09:59.817Z,13.50
2022-08-19T20:12:27.032Z,14.13
2022-08-19T20:14:53.693Z,12.05
2022-08-19T20:17:20.736Z,11.38
2022-08-19T20:19:47.613Z,13.30
2022-08-19T20:22:14.261Z,13.13
2022-08-19T20:24:40.918Z,13.55
2022-08-19T20:27:08.951Z,13.40
2022-08-19T20:29:41.541Z,12.77
2022-08-19T20:32:11.428Z,12.82
2022-08-19T20:34:38.695Z,12.73
2022-08-19T20:37:05.731Z,11.65
2022-08-19T20:39:32.367Z,12.02
2022-08-19T20:41:59.100Z,11.07
2022-08-19T20:44:27.103Z,12.88
2022-08-19T20:46:54.721Z,13.97
2022-08-19T20:49:27.490Z,12.25
2022-08-19T20:51:54.722Z,12.52
2022-08-19T20:54:21.516Z,14.07
2022-08-19T20:56:48.123Z,13.05
2022-08-19T20:59:14.885Z,12.87
2022-08-19T21:01:42.932Z,13.95
2022-08-19T21:04:09.615Z,15.00
2022-08-19T21:06:36.412Z,12.77
2022-08-19T21:09:03.116Z,12.15
2022-08-19T21:11:29.828Z,13.70
2022-08-19T21:13:56.435Z,14.23
2022-08-19T21:16:23.087Z,15.48
2022-08-19T21:18:51.168Z,16.10
2022-08-19T21:21:17.816Z,14.75
2022-08-19T21:23:44.488Z,14.30
2022-08-19T21:26:11.280Z,16.15
2022-08-19T21:28:37.969Z,14.65
2022-08-19T21:31:06.425Z,13.80
2022-08-19T21:33:33.153Z,15.02
2022-08-19T21:36:01.297Z,18.00
2022-08-19T21:38:28.083Z,16.70
2022-08-19T21:40:55.259Z,16.27
2022-08-19T21:43:22.398Z,18.13
2022-08-19T21:45:49.176Z,17.42
2022-08-19T21:48:15.860Z,15.87
2022-08-19T21:50:43.251Z,18.02
2022-08-19T21:53:17.400Z,18.20
2022-08-19T21:55:44.454Z,18.65
2022-08-19T21:58:11.205Z,17.58
2022-08-19T22:00:37.981Z,14.60
2022-08-19T22:03:05.212Z,17.75
2022-08-19T22:05:32.477Z,17.50
2022-08-19T22:08:00.514Z,18.30
2022-08-19T22:10:31.644Z,16.02
2022-08-19T22:12:58.628Z,16.30
2022-08-19T22:15:26.399Z,17.60
2022-08-19T22:17:53.630Z,20.70
2022-08-19T22:20:24.172Z,17.30
2022-08-19T22:22:52.655Z,17.65
2022-08-19T22:25:29.330Z,17.60
2022-08-19T22:28:01.824Z,16.48
2022-08-19T22:30:33.348Z,17.35
2022-08-19T22:33:01.874Z,17.10
2022-08-19T22:35:32.174Z,15.63
2022-08-19T22:37:59.112Z,18.67
2022-08-19T22:40:27.223Z,17.17
2022-08-19T22:42:57.624Z,14.75
2022-08-19T22:45:26.863Z,14.48
2022-08-19T22:47:53.539Z,14.98
2022-08-19T22:50:20.353Z,18.83
2022-08-19T22:52:51.743Z,17.27
2022-08-19T22:55:19.277Z,15.93
2022-08-19T22:57:45.900Z,18.40
2022-08-19T23:00:13.500Z,17.85
2022-08-19T23:02:51.597Z,18.23
2022-08-19T23:05:22.198Z,23.63
2022-08-19T23:07:52.049Z,20.17
2022-08-19T23:10:27.468Z,19.17
2022-08-19T23:12:57.059Z,19.88
2022-08-19T23:15:26.013Z,17.10
2022-08-19T23:17:56.802Z,17.15
2022-08-19T23:20:25.469Z,16.17
2022-08-19T23:22:52.375Z,19.42
2022-08-19T23:25:21.852Z,17.00
2022-08-19T23:27:49.010Z,16.97
2022-08-19T23:30:16.084Z,17.75
2022-08-19T23:32:42.771Z,16.42
2022-08-19T23:35:10.787Z,17.48
2022-08-19T23:37:37.516Z,17.25
2022-08-19T23:40:06.517Z,16.27
2022-08-19T23:42:33.188Z,18.35
2022-08-19T23:45:01.568Z,16.58
2022-08-19T23:47:28.232Z,17.20
2022-08-19T23:49:56.348Z,18.42
2022-08-19T23:52:24.324Z,15.87
2022-08-19T23:54:50.989Z,17.63
2022-08-19T23:57:17.661Z,16.83
2022-08-19T23:59:44.774Z,18.25
